Time;durP1;ratioP1;P1;durP2;ratioP2;P2;SDS_P1;SDS_P2;PMS_P1;PMS_P2;Temp;Humidity;BMP_temperature;BMP_pressure;BME280_temperature;BME280_humidity;BME280_pressure;Samples;Min_cycle;Max_cycle;Signal;HPM_P1;HPM_P2
2023/11/11 00:00:08;;;;;;;;;;;;;;;;;;5073952;28;19908;-73
2023/11/11 00:02:34;;;;;;;;;;;;;;;;;;5074354;28;19909;-74
2023/11/11 00:05:00;;;;;;;;;;;;;;;;;;5074634;28;19953;-74
2023/11/11 00:07:26;;;;;;;;;;;;;;;;;;5073887;28;19912;-74
2023/11/11 00:09:53;;;;;;;;;;;;;;;;;;5074333;28;20366;-74
2023/11/11 00:12:19;;;;;;;;;;;;;;;;;;5074386;28;19908;-74
2023/11/11 00:14:44;;;;;;;;;;;;;;;;;;5073722;28;20272;-74
2023/11/11 00:17:11;;;;;;;;;;;;;;;;;;5074162;28;20376;-74
2023/11/11 00:19:37;;;;;;;;;;;;;;;;;;5074147;28;20007;-74
2023/11/11 00:22:04;;;;;;;;;;;;;;;;;;5073748;28;19908;-74
2023/11/11 00:24:30;;;;;;;;;;;;;;;;;;5074187;28;20410;-75
2023/11/11 00:26:56;;;;;;;;;;;;;;;;;;5074193;28;19908;-74
2023/11/11 00:29:22;;;;;;;;;;;;;;;;;;5073534;28;19920;-74
2023/11/11 00:31:48;;;;;;;;;;;;;;;;;;5073988;28;19909;-74
2023/11/11 00:34:15;;;;;;;;;;;;;;;;;;5073924;28;19951;-75
2023/11/11 00:36:41;;;;;;;;;;;;;;;;;;5073506;28;19916;-74
2023/11/11 00:39:07;;;;;;;;;;;;;;;;;;5073880;28;20272;-74
2023/11/11 00:41:32;;;;;;;;;;;;;;;;;;5073458;28;20039;-74
2023/11/11 00:43:58;;;;;;;;;;;;;;;;;;5073637;28;19908;-74
2023/11/11 00:46:24;;;;;;;;;;;;;;;;;;5073804;28;19915;-74
2023/11/11 00:48:50;;;;;;;;;;;;;;;;;;5073129;28;20065;-74
2023/11/11 00:51:17;;;;;;;;;;;;;;;;;;5073727;28;19967;-74
2023/11/11 00:53:44;;;;;;;;;;;;;;;;;;5073773;28;19909;-74
2023/11/11 00:56:11;;;;;;;;;;;;;;;;;;5073402;28;19909;-74
2023/11/11 00:58:37;;;;;;;;;;;;;;;;;;5073699;28;19914;-74
2023/11/11 01:06:33;;;;;;;;;;;;;;;;;;5073926;28;20280;-73
2023/11/11 01:08:59;;;;;;;;;;;;;;;;;;5073691;28;20016;-74
2023/11/11 01:11:25;;;;;;;;;;;;;;;;;;5073269;28;19978;-74
2023/11/11 01:13:50;;;;;;;;;;;;;;;;;;5073511;28;19909;-73
2023/11/11 01:16:16;;;;;;;;;;;;;;;;;;5072251;28;19909;-73
2023/11/11 01:18:42;;;;;;;;;;;;;;;;;;5071776;28;19942;-74
2023/11/11 01:21:08;;;;;;;;;;;;;;;;;;5072187;28;19908;-74
2023/11/11 01:23:35;;;;;;;;;;;;;;;;;;5073562;28;19916;-74
2023/11/11 01:26:02;;;;;;;;;;;;;;;;;;5073030;28;19940;-74
2023/11/11 01:28:29;;;;;;;;;;;;;;;;;;5073277;28;19916;-74
2023/11/11 01:30:55;;;;;;;;;;;;;;;;;;5072986;28;19908;-74
2023/11/11 01:33:21;;;;;;;;;;;;;;;;;;5073304;28;19915;-74
2023/11/11 01:35:48;;;;;;;;;;;;;;;;;;5073497;28;19913;-74
2023/11/11 01:38:14;;;;;;;;;;;;;;;;;;5072963;28;19915;-74
2023/11/11 01:40:40;;;;;;;;;;;;;;;;;;5073648;28;20348;-74
2023/11/11 01:43:06;;;;;;;;;;;;;;;;;;5073301;28;19954;-74
2023/11/11 01:45:32;;;;;;;;;;;;;;;;;;5072969;28;19916;-74
2023/11/11 01:47:58;;;;;;;;;;;;;;;;;;5071677;28;19928;-74
2023/11/11 01:50:25;;;;;;;;;;;;;;;;;;5073547;28;19995;-74
2023/11/11 01:52:53;;;;;;;;;;;;;;;;;;5072742;28;19908;-74
2023/11/11 01:55:19;;;;;;;;;;;;;;;;;;5074369;28;19931;-74
2023/11/11 01:57:45;;;;;;;;;;;;;;;;;;5076674;28;19909;-74
2023/11/11 02:00:12;;;;;;;;;;;;;;;;;;5076325;28;20276;-74
2023/11/11 02:02:38;;;;;;;;;;;;;;;;;;5076672;28;19915;-74
2023/11/11 02:05:05;;;;;;;;;;;;;;;;;;5076639;28;19961;-74
2023/11/11 02:07:31;;;;;;;;;;;;;;;;;;5076141;28;20364;-74
2023/11/11 02:09:58;;;;;;;;;;;;;;;;;;5076528;28;19957;-74
2023/11/11 02:12:24;;;;;;;;;;;;;;;;;;5076539;28;19975;-74
2023/11/11 02:14:50;;;;;;;;;;;;;;;;;;5076119;28;19912;-74
2023/11/11 02:17:16;;;;;;;;;;;;;;;;;;5075187;28;20372;-74
2023/11/11 02:19:41;;;;;;;;;;;;;;;;;;5076327;28;20288;-74
2023/11/11 02:22:10;;;;;;;;;;;;;;;;;;5074590;28;19931;-74
2023/11/11 02:32:41;;;;;;;;;;;;;;;;;;5040423;28;20423;-74
2023/11/11 02:35:07;;;;;;;;;;;;;;;;;;5056097;28;20386;-74
2023/11/11 02:37:34;;;;;;;;;;;;;;;;;;5056082;28;19909;-74
2023/11/11 02:40:00;;;;;;;;;;;;;;;;;;5054369;28;19909;-74
2023/11/11 02:42:26;;;;;;;;;;;;;;;;;;5056115;28;19954;-74
2023/11/11 02:44:51;;;;;;;;;;;;;;;;;;5056188;28;19956;-73
2023/11/11 02:47:17;;;;;;;;;;;;;;;;;;5055426;28;19908;-73
2023/11/11 02:49:44;;;;;;;;;;;;;;;;;;5055858;28;20344;-74
2023/11/11 02:52:10;;;;;;;;;;;;;;;;;;5055780;28;19916;-73
2023/11/11 02:54:36;;;;;;;;;;;;;;;;;;5055296;28;20285;-74
2023/11/11 02:57:01;;;;;;;;;;;;;;;;;;5056146;28;20423;-73
2023/11/11 02:59:27;;;;;;;;;;;;;;;;;;5055627;28;20358;-73
2023/11/11 03:01:53;;;;;;;;;;;;;;;;;;5055211;28;20430;-73
2023/11/11 03:04:19;;;;;;;;;;;;;;;;;;5055539;28;20387;-74
2023/11/11 03:06:46;;;;;;;;;;;;;;;;;;5055481;28;19999;-75
2023/11/11 03:09:12;;;;;;;;;;;;;;;;;;5053697;28;19963;-74
2023/11/11 03:11:38;;;;;;;;;;;;;;;;;;5055438;28;19944;-74
2023/11/11 03:14:04;;;;;;;;;;;;;;;;;;5055341;28;19908;-74
2023/11/11 03:16:29;;;;;;;;;;;;;;;;;;5054892;28;19998;-74
2023/11/11 03:18:55;;;;;;;;;;;;;;;;;;5055233;28;20030;-74
2023/11/11 03:21:21;;;;;;;;;;;;;;;;;;5055123;28;19916;-74
2023/11/11 03:23:47;;;;;;;;;;;;;;;;;;5055194;28;19909;-74
2023/11/11 03:26:13;;;;;;;;;;;;;;;;;;5055211;28;20353;-74
2023/11/11 03:28:39;;;;;;;;;;;;;;;;;;5054611;28;19920;-75
2023/11/11 03:31:05;;;;;;;;;;;;;;;;;;5055093;28;20007;-74
2023/11/11 03:33:31;;;;;;;;;;;;;;;;;;5055083;28;19908;-74
2023/11/11 03:35:57;;;;;;;;;;;;;;;;;;5053286;28;19956;-75
2023/11/11 03:38:23;;;;;;;;;;;;;;;;;;5053635;28;19915;-74
2023/11/11 03:40:49;;;;;;;;;;;;;;;;;;5054917;28;20000;-74
2023/11/11 03:43:15;;;;;;;;;;;;;;;;;;5054376;28;19948;-74
2023/11/11 03:45:41;;;;;;;;;;;;;;;;;;5054721;28;19909;-75
2023/11/11 03:48:07;;;;;;;;;;;;;;;;;;5054620;28;19958;-74
2023/11/11 03:50:33;;;;;;;;;;;;;;;;;;5054557;28;20316;-74
2023/11/11 03:52:59;;;;;;;;;;;;;;;;;;5054614;28;20433;-74
2023/11/11 03:55:25;;;;;;;;;;;;;;;;;;5053578;28;20276;-74
2023/11/11 03:57:51;;;;;;;;;;;;;;;;;;5054225;28;19909;-74
2023/11/11 04:00:19;;;;;;;;;;;;;;;;;;5054470;28;19909;-74
2023/11/11 04:02:45;;;;;;;;;;;;;;;;;;5054447;28;19909;-74
2023/11/11 04:05:11;;;;;;;;;;;;;;;;;;5054031;28;19908;-74
2023/11/11 04:07:37;;;;;;;;;;;;;;;;;;5054386;28;20324;-74
2023/11/11 04:10:03;;;;;;;;;;;;;;;;;;5054328;28;20280;-74
2023/11/11 04:12:29;;;;;;;;;;;;;;;;;;5053884;28;20356;-74
2023/11/11 04:14:55;;;;;;;;;;;;;;;;;;5054283;28;19909;-73
2023/11/11 04:17:22;;;;;;;;;;;;;;;;;;5054255;28;20394;-74
2023/11/11 04:19:48;;;;;;;;;;;;;;;;;;5053673;28;19909;-74
2023/11/11 04:22:14;;;;;;;;;;;;;;;;;;5052801;28;19909;-74
2023/11/11 04:24:40;;;;;;;;;;;;;;;;;;5053602;28;19920;-74
2023/11/11 04:27:08;;;;;;;;;;;;;;;;;;5054024;28;19909;-74
2023/11/11 04:29:34;;;;;;;;;;;;;;;;;;5052676;28;19924;-74
2023/11/11 04:32:00;;;;;;;;;;;;;;;;;;5053434;28;19924;-74
2023/11/11 04:34:28;;;;;;;;;;;;;;;;;;5053942;28;19909;-74
2023/11/11 04:36:56;;;;;;;;;;;;;;;;;;5053869;28;20003;-74
2023/11/11 04:39:22;;;;;;;;;;;;;;;;;;5053525;28;19908;-74
2023/11/11 04:41:48;;;;;;;;;;;;;;;;;;5053857;28;20022;-74
2023/11/11 04:44:15;;;;;;;;;;;;;;;;;;5054130;28;19909;-74
2023/11/11 04:46:41;;;;;;;;;;;;;;;;;;5052089;28;19909;-74
2023/11/11 04:49:07;;;;;;;;;;;;;;;;;;5053822;28;19916;-74
2023/11/11 04:51:33;;;;;;;;;;;;;;;;;;5053922;28;19963;-75
2023/11/11 04:53:59;;;;;;;;;;;;;;;;;;5053492;28;19908;-75
2023/11/11 04:56:24;;;;;;;;;;;;;;;;;;5053692;28;20336;-75
2023/11/11 04:58:50;;;;;;;;;;;;;;;;;;5053703;28;19959;-75
2023/11/11 05:01:16;;;;;;;;;;;;;;;;;;5053417;28;19909;-75
2023/11/11 05:03:44;;;;;;;;;;;;;;;;;;5053642;28;19908;-74
2023/11/11 05:06:10;;;;;;;;;;;;;;;;;;5053571;28;20309;-75
2023/11/11 05:08:36;;;;;;;;;;;;;;;;;;5053164;28;20022;-75
2023/11/11 05:11:02;;;;;;;;;;;;;;;;;;5053555;28;19964;-75
2023/11/11 05:13:31;;;;;;;;;;;;;;;;;;5052283;28;19997;-74
2023/11/11 05:16:10;;;;;;;;;;;;;;;;;;5051972;28;19916;-74
2023/11/11 05:18:36;;;;;;;;;;;;;;;;;;5053704;28;20442;-74
2023/11/11 05:21:02;;;;;;;;;;;;;;;;;;5053373;28;19916;-74
2023/11/11 05:23:28;;;;;;;;;;;;;;;;;;5053459;28;20257;-74
2023/11/11 05:25:55;;;;;;;;;;;;;;;;;;5053538;28;19909;-74
2023/11/11 05:28:21;;;;;;;;;;;;;;;;;;5053040;28;20010;-74
2023/11/11 05:30:46;;;;;;;;;;;;;;;;;;5055220;28;19951;-74
2023/11/11 05:33:12;;;;;;;;;;;;;;;;;;5057534;28;19924;-74
2023/11/11 05:35:38;;;;;;;;;;;;;;;;;;5057102;28;20007;-75
2023/11/11 05:38:04;;;;;;;;;;;;;;;;;;5057229;28;19908;-75
2023/11/11 05:40:30;;;;;;;;;;;;;;;;;;5057014;28;19963;-74
2023/11/11 05:42:57;;;;;;;;;;;;;;;;;;5056706;28;19978;-74
2023/11/11 05:45:24;;;;;;;;;;;;;;;;;;5057051;28;20327;-74
2023/11/11 05:47:49;;;;;;;;;;;;;;;;;;5057194;28;19925;-74
2023/11/11 05:50:16;;;;;;;;;;;;;;;;;;5056605;28;20068;-74
2023/11/11 05:52:42;;;;;;;;;;;;;;;;;;5056859;28;19909;-74
2023/11/11 05:55:11;;;;;;;;;;;;;;;;;;5057062;28;19955;-74
2023/11/11 05:57:38;;;;;;;;;;;;;;;;;;5056648;28;19908;-74
2023/11/11 06:00:05;;;;;;;;;;;;;;;;;;5057036;28;19909;-74
2023/11/11 06:02:31;;;;;;;;;;;;;;;;;;5056738;28;19908;-74
2023/11/11 06:04:57;;;;;;;;;;;;;;;;;;5056357;28;20276;-73
2023/11/11 06:07:23;;;;;;;;;;;;;;;;;;5056794;28;20349;-73
2023/11/11 06:09:49;;;;;;;;;;;;;;;;;;5056594;28;19916;-74
2023/11/11 06:12:15;;;;;;;;;;;;;;;;;;5056248;28;19909;-74
2023/11/11 06:14:41;;;;;;;;;;;;;;;;;;5056562;28;20382;-74
2023/11/11 06:17:07;;;;;;;;;;;;;;;;;;5056481;28;20257;-74
2023/11/11 06:19:33;;;;;;;;;;;;;;;;;;5056065;28;19916;-74
2023/11/11 06:22:04;;;;;;;;;;;;;;;;;;5056603;28;19913;-74
2023/11/11 06:24:30;;;;;;;;;;;;;;;;;;5056171;28;20332;-74
2023/11/11 06:26:56;;;;;;;;;;;;;;;;;;5054950;28;19920;-74
2023/11/11 06:29:22;;;;;;;;;;;;;;;;;;5056100;28;19940;-74
2023/11/11 06:31:48;;;;;;;;;;;;;;;;;;5055581;28;20012;-74
2023/11/11 06:34:14;;;;;;;;;;;;;;;;;;5054815;28;20280;-74
2023/11/11 06:36:40;;;;;;;;;;;;;;;;;;5056048;28;19909;-74
2023/11/11 06:39:08;;;;;;;;;;;;;;;;;;5055644;28;20287;-74
2023/11/11 06:41:34;;;;;;;;;;;;;;;;;;5055664;28;19908;-74
2023/11/11 06:44:00;;;;;;;;;;;;;;;;;;5055914;28;20418;-74
2023/11/11 06:46:26;;;;;;;;;;;;;;;;;;5055541;28;20383;-74
2023/11/11 06:48:52;;;;;;;;;;;;;;;;;;5054434;28;20364;-73
2023/11/11 06:51:18;;;;;;;;;;;;;;;;;;5056082;28;19952;-74
2023/11/11 06:53:44;;;;;;;;;;;;;;;;;;5055475;28;19909;-74
2023/11/11 06:56:10;;;;;;;;;;;;;;;;;;5055695;28;19908;-74
2023/11/11 06:58:36;;;;;;;;;;;;;;;;;;5055664;28;19963;-74
2023/11/11 07:01:02;;;;;;;;;;;;;;;;;;5055207;28;19999;-74
2023/11/11 07:03:28;;;;;;;;;;;;;;;;;;5055557;28;20015;-74
2023/11/11 07:05:56;;;;;;;;;;;;;;;;;;5055574;28;20403;-74
2023/11/11 07:08:22;;;;;;;;;;;;;;;;;;5055100;28;20395;-74
2023/11/11 07:10:48;;;;;;;;;;;;;;;;;;5055483;28;19909;-74
2023/11/11 07:13:15;;;;;;;;;;;;;;;;;;5054059;28;19909;-74
2023/11/11 07:15:41;;;;;;;;;;;;;;;;;;5054877;28;20479;-73
2023/11/11 07:18:08;;;;;;;;;;;;;;;;;;5055568;28;19959;-73
2023/11/11 07:20:34;;;;;;;;;;;;;;;;;;5054918;28;19958;-73
2023/11/11 07:23:00;;;;;;;;;;;;;;;;;;5055407;28;19915;-74
2023/11/11 07:25:26;;;;;;;;;;;;;;;;;;5055106;28;20292;-74
2023/11/11 07:27:52;;;;;;;;;;;;;;;;;;5053333;28;20361;-74
2023/11/11 07:30:18;;;;;;;;;;;;;;;;;;5055107;28;20369;-74
2023/11/11 07:32:44;;;;;;;;;;;;;;;;;;5054850;28;19952;-73
2023/11/11 07:35:11;;;;;;;;;;;;;;;;;;5053256;28;19908;-73
2023/11/11 07:37:37;;;;;;;;;;;;;;;;;;5054905;28;19916;-73
2023/11/11 07:40:04;;;;;;;;;;;;;;;;;;5054847;28;19909;-74
2023/11/11 07:42:30;;;;;;;;;;;;;;;;;;5053218;28;19908;-74
2023/11/11 07:44:56;;;;;;;;;;;;;;;;;;5054795;28;19959;-73
2023/11/11 07:47:22;;;;;;;;;;;;;;;;;;5054726;28;20315;-74
2023/11/11 07:49:48;;;;;;;;;;;;;;;;;;5054352;28;19913;-74
2023/11/11 07:52:14;;;;;;;;;;;;;;;;;;5054450;28;19909;-73
2023/11/11 07:54:40;;;;;;;;;;;;;;;;;;5054354;28;19966;-73
2023/11/11 07:57:07;;;;;;;;;;;;;;;;;;5054157;28;19916;-73
2023/11/11 07:59:35;;;;;;;;;;;;;;;;;;5054513;28;19909;-73
2023/11/11 08:02:01;;;;;;;;;;;;;;;;;;5054490;28;19908;-73
2023/11/11 08:04:27;;;;;;;;;;;;;;;;;;5054086;28;20036;-74
2023/11/11 08:06:53;;;;;;;;;;;;;;;;;;5054448;28;19948;-74
2023/11/11 08:09:20;;;;;;;;;;;;;;;;;;5054302;28;19928;-74
2023/11/11 08:11:46;;;;;;;;;;;;;;;;;;5053948;28;19909;-74
2023/11/11 08:14:12;;;;;;;;;;;;;;;;;;5054318;28;20015;-74
2023/11/11 08:16:38;;;;;;;;;;;;;;;;;;5054307;28;19909;-74
2023/11/11 08:19:04;;;;;;;;;;;;;;;;;;5053659;28;19955;-73
2023/11/11 08:21:32;;;;;;;;;;;;;;;;;;5052820;28;19909;-74
2023/11/11 08:23:58;;;;;;;;;;;;;;;;;;5053744;28;19909;-73
2023/11/11 08:26:25;;;;;;;;;;;;;;;;;;5052776;28;19909;-74
2023/11/11 08:31:06;;;;;;;;;;;;;;;;;;5111984;27;20245;-73
2023/11/11 08:33:32;;;;;;;;;;;;;;;;;;5111746;28;19912;-73
2023/11/11 08:41:29;;;;;;;;;;;;;;;;;;5111907;27;19912;-74
2023/11/11 08:43:54;;;;;;;;;;;;;;;;;;5111759;28;20371;-74
2023/11/11 08:48:51;;;;;;;;;;;;;;;;;;5091732;28;19923;-73
2023/11/11 08:51:17;;;;;;;;;;;;;;;;;;5090151;28;20011;-74
2023/11/11 08:53:43;;;;;;;;;;;;;;;;;;5091031;28;19909;-74
2023/11/11 08:56:09;;;;;;;;;;;;;;;;;;5091199;28;19909;-74
2023/11/11 08:58:35;;;;;;;;;;;;;;;;;;5091455;28;19908;-74
2023/11/11 09:01:21;;;;;;;;;;;;;;;;;;5091594;27;19919;-74
2023/11/11 09:06:02;;;;;;;;;;;;;;;;;;5091712;28;19916;-74
2023/11/11 09:08:29;;;;;;;;;;;;;;;;;;5091443;28;19912;-73
2023/11/11 09:11:59;;;;;;;;;;;;;;;;;;5091900;27;19916;-74
2023/11/11 09:14:25;;;;;;;;;;;;;;;;;;5089739;28;19962;-75
2023/11/11 09:16:51;;;;;;;;;;;;;;;;;;5091256;28;20380;-74
2023/11/11 09:19:17;;;;;;;;;;;;;;;;;;5091683;28;20383;-75
2023/11/11 09:23:36;;;;;;;;;;;;;;;;;;5091506;27;20388;-74
2023/11/11 09:27:11;;;;;;;;;;;;;;;;;;5112169;27;19924;-74
2023/11/11 09:29:37;;;;;;;;;;;;;;;;;;5111783;28;20371;-74
2023/11/11 09:32:04;;;;;;;;;;;;;;;;;;5111664;28;19963;-75
2023/11/11 09:34:50;;;;;;;;;;;;;;;;;;5071178;28;19917;-74
2023/11/11 09:37:17;;;;;;;;;;;;;;;;;;5071172;28;20331;-74
2023/11/11 09:46:01;;;;;;;;;;;;;;;;;;5112495;27;20352;-75
2023/11/11 09:48:28;;;;;;;;;;;;;;;;;;5110199;28;20042;-75
2023/11/11 09:50:54;;;;;;;;;;;;;;;;;;5110368;28;20295;-74
2023/11/11 09:53:19;;;;;;;;;;;;;;;;;;5111686;28;19912;-75
2023/11/11 09:55:45;;;;;;;;;;;;;;;;;;5111087;28;19908;-74
2023/11/11 09:59:50;;;;;;;;;;;;;;;;;;5111857;27;19916;-73
2023/11/11 10:02:15;;;;;;;;;;;;;;;;;;5111303;28;19959;-73
2023/11/11 10:04:41;;;;;;;;;;;;;;;;;;5111623;28;19923;-73
2023/11/11 10:07:07;;;;;;;;;;;;;;;;;;5111523;28;20256;-73
2023/11/11 10:10:02;;;;;;;;;;;;;;;;;;5091357;27;19912;-73
2023/11/11 10:12:28;;;;;;;;;;;;;;;;;;5091445;28;20023;-73
2023/11/11 10:17:03;;;;;;;;;;;;;;;;;;5091422;27;19922;-73
2023/11/11 10:22:44;;;;;;;;;;;;;;;;;;5153277;27;20006;-73
2023/11/11 10:25:10;;;;;;;;;;;;;;;;;;5152531;27;20290;-74
2023/11/11 10:29:23;;;;;;;;;;;;;;;;;;5112008;27;19916;-73
2023/11/11 10:31:49;;;;;;;;;;;;;;;;;;5110046;28;19918;-73
2023/11/11 10:35:54;;;;;;;;;;;;;;;;;;5091471;27;19913;-73
2023/11/11 10:38:20;;;;;;;;;;;;;;;;;;5090920;28;19934;-73
2023/11/11 10:40:46;;;;;;;;;;;;;;;;;;5091231;28;19954;-73
2023/11/11 10:45:16;;;;;;;;;;;;;;;;;;5111475;27;19923;-73
2023/11/11 10:49:50;;;;;;;;;;;;;;;;;;5091817;28;19916;-73
2023/11/11 10:53:15;;;;;;;;;;;;;;;;;;5091213;27;19923;-73
2023/11/11 10:59:41;;;;;;;;;;;;;;;;;;5111702;27;19916;-73
2023/11/11 11:02:10;;;;;;;;;;;;;;;;;;5111762;28;20287;-73
2023/11/11 11:04:36;;;;;;;;;;;;;;;;;;5111819;28;20355;-74
2023/11/11 11:07:03;;;;;;;;;;;;;;;;;;5111373;28;19914;-73
2023/11/11 11:09:57;;;;;;;;;;;;;;;;;;5112284;27;19916;-73
2023/11/11 11:14:40;;;;;;;;;;;;;;;;;;5111444;27;19916;-75
2023/11/11 11:17:08;;;;;;;;;;;;;;;;;;5111846;28;19918;-74
2023/11/11 11:19:34;;;;;;;;;;;;;;;;;;5111494;28;19908;-74
2023/11/11 11:22:00;;;;;;;;;;;;;;;;;;5111725;28;20363;-74
2023/11/11 11:24:26;;;;;;;;;;;;;;;;;;5111506;28;19908;-75
2023/11/11 11:26:52;;;;;;;;;;;;;;;;;;5111100;28;19961;-75
2023/11/11 11:29:19;;;;;;;;;;;;;;;;;;5111436;28;20003;-73
2023/11/11 11:31:45;;;;;;;;;;;;;;;;;;5110199;28;19914;-74
2023/11/11 11:36:05;;;;;;;;;;;;;;;;;;5091297;27;19938;-73
2023/11/11 11:38:31;;;;;;;;;;;;;;;;;;5090049;28;19912;-73
2023/11/11 11:40:57;;;;;;;;;;;;;;;;;;5090811;28;20233;-73
2023/11/11 11:44:49;;;;;;;;;;;;;;;;;;5111896;27;19922;-73
2023/11/11 11:51:09;;;;;;;;;;;;;;;;;;5111805;27;19922;-73
2023/11/11 11:56:10;;;;;;;;;;;;;;;;;;5111645;27;19912;-74
2023/11/11 11:58:36;;;;;;;;;;;;;;;;;;5111725;28;19916;-73
2023/11/11 12:02:52;;;;;;;;;;;;;;;;;;5111589;27;19916;-73
2023/11/11 12:06:03;;;;;;;;;;;;;;;;;;5111863;27;19916;-73
2023/11/11 12:08:29;;;;;;;;;;;;;;;;;;5111733;28;19978;-73
2023/11/11 12:12:27;;;;;;;;;;;;;;;;;;5091401;27;20376;-72
2023/11/11 12:15:04;;;;;;;;;;;;;;;;;;5111864;27;20387;-72
2023/11/11 12:17:30;;;;;;;;;;;;;;;;;;5111375;28;19912;-73
2023/11/11 12:20:07;;;;;;;;;;;;;;;;;;5153298;27;20002;-72
2023/11/11 12:22:33;;;;;;;;;;;;;;;;;;5152848;27;20027;-73
2023/11/11 12:26:31;;;;;;;;;;;;;;;;;;5132634;27;20383;-74
2023/11/11 12:31:27;;;;;;;;;;;;;;;;;;5111672;27;19923;-73
2023/11/11 12:36:21;;;;;;;;;;;;;;;;;;5091519;27;19917;-74
2023/11/11 12:38:48;;;;;;;;;;;;;;;;;;5090986;28;20003;-73
2023/11/11 12:41:14;;;;;;;;;;;;;;;;;;5091321;28;19909;-73
2023/11/11 12:47:22;;;;;;;;;;;;;;;;;;5091832;27;19919;-72
2023/11/11 12:49:48;;;;;;;;;;;;;;;;;;5090026;28;19912;-72
2023/11/11 12:56:15;;;;;;;;;;;;;;;;;;5112263;27;19916;-75
2023/11/11 12:59:09;;;;;;;;;;;;;;;;;;5091481;28;20294;-74
2023/11/11 13:01:35;;;;;;;;;;;;;;;;;;5091295;28;19947;-75
2023/11/11 13:04:02;;;;;;;;;;;;;;;;;;5090075;28;19952;-74
2023/11/11 13:11:21;;;;;;;;;;;;;;;;;;5111745;27;19916;-75
2023/11/11 13:14:03;;;;;;;;;;;;;;;;;;5091154;27;19916;-74
2023/11/11 13:18:14;;;;;;;;;;;;;;;;;;5111889;27;19916;-74
2023/11/11 13:20:41;;;;;;;;;;;;;;;;;;5111511;28;20454;-73
2023/11/11 13:23:08;;;;;;;;;;;;;;;;;;5110472;28;19908;-73
2023/11/11 13:27:21;;;;;;;;;;;;;;;;;;5070844;28;19916;-74
2023/11/11 13:29:47;;;;;;;;;;;;;;;;;;5069819;28;20007;-73
2023/11/11 13:32:13;;;;;;;;;;;;;;;;;;5071081;28;20003;-74
2023/11/11 13:38:55;;;;;;;;;;;;;;;;;;5112026;27;20378;-72
2023/11/11 13:41:21;;;;;;;;;;;;;;;;;;5111387;28;20350;-73
2023/11/11 13:43:51;;;;;;;;;;;;;;;;;;5111635;28;19912;-73
2023/11/11 13:46:20;;;;;;;;;;;;;;;;;;5111659;28;19908;-73
2023/11/11 13:48:46;;;;;;;;;;;;;;;;;;5111152;28;19990;-73
2023/11/11 13:53:10;;;;;;;;;;;;;;;;;;5091407;27;19923;-72
2023/11/11 13:59:49;;;;;;;;;;;;;;;;;;5111949;27;19922;-73
2023/11/11 14:02:15;;;;;;;;;;;;;;;;;;5111681;28;20426;-74
2023/11/11 14:04:46;;;;;;;;;;;;;;;;;;5111931;28;19953;-74
2023/11/11 14:07:33;;;;;;;;;;;;;;;;;;5112068;27;19916;-73
2023/11/11 14:10:00;;;;;;;;;;;;;;;;;;5111363;28;20379;-72
2023/11/11 14:13:24;;;;;;;;;;;;;;;;;;5112506;27;19912;-72
2023/11/11 14:15:50;;;;;;;;;;;;;;;;;;5111267;28;20004;-72
2023/11/11 14:19:46;;;;;;;;;;;;;;;;;;5112307;27;19922;-72
2023/11/11 14:22:13;;;;;;;;;;;;;;;;;;5111730;28;20007;-72
2023/11/11 14:24:39;;;;;;;;;;;;;;;;;;5110210;28;19954;-72
2023/11/11 14:29:27;;;;;;;;;;;;;;;;;;5071188;28;19913;-73
2023/11/11 14:32:21;;;;;;;;;;;;;;;;;;5112204;27;19916;-72
2023/11/11 14:34:47;;;;;;;;;;;;;;;;;;5111933;28;20416;-72
2023/11/11 14:37:13;;;;;;;;;;;;;;;;;;5109918;28;19912;-72
2023/11/11 14:41:16;;;;;;;;;;;;;;;;;;5111661;27;19919;-72
2023/11/11 14:43:42;;;;;;;;;;;;;;;;;;5111403;28;19912;-75
2023/11/11 14:46:08;;;;;;;;;;;;;;;;;;5111678;28;20413;-72
2023/11/11 14:48:34;;;;;;;;;;;;;;;;;;5111681;28;19914;-73
2023/11/11 14:53:39;;;;;;;;;;;;;;;;;;5111989;27;19919;-74
2023/11/11 14:56:05;;;;;;;;;;;;;;;;;;5111936;28;19912;-74
2023/11/11 14:58:32;;;;;;;;;;;;;;;;;;5111418;28;19961;-74
2023/11/11 15:02:06;;;;;;;;;;;;;;;;;;5092019;27;20287;-73
2023/11/11 15:04:32;;;;;;;;;;;;;;;;;;5091412;28;19913;-74
2023/11/11 15:06:58;;;;;;;;;;;;;;;;;;5091702;28;19908;-74
2023/11/11 15:09:24;;;;;;;;;;;;;;;;;;5089964;28;19955;-74
2023/11/11 15:11:50;;;;;;;;;;;;;;;;;;5091262;28;20395;-74
2023/11/11 15:14:17;;;;;;;;;;;;;;;;;;5091370;28;19915;-73
2023/11/11 15:16:44;;;;;;;;;;;;;;;;;;5091205;28;19909;-73
2023/11/11 15:19:13;;;;;;;;;;;;;;;;;;5089424;28;19916;-73
2023/11/11 15:21:39;;;;;;;;;;;;;;;;;;5090977;28;19924;-74
2023/11/11 15:24:07;;;;;;;;;;;;;;;;;;5090973;28;20284;-73
2023/11/11 15:26:33;;;;;;;;;;;;;;;;;;5090569;28;19908;-73
2023/11/11 15:28:59;;;;;;;;;;;;;;;;;;5091193;28;19909;-74
2023/11/11 15:31:26;;;;;;;;;;;;;;;;;;5090918;28;19931;-74
2023/11/11 15:33:52;;;;;;;;;;;;;;;;;;5090502;28;19966;-74
2023/11/11 15:36:18;;;;;;;;;;;;;;;;;;5090807;28;20000;-74
2023/11/11 15:38:44;;;;;;;;;;;;;;;;;;5090698;28;19912;-74
2023/11/11 15:41:10;;;;;;;;;;;;;;;;;;5090153;28;20007;-74
2023/11/11 15:43:36;;;;;;;;;;;;;;;;;;5090582;28;19909;-74
2023/11/11 15:46:04;;;;;;;;;;;;;;;;;;5089381;28;19970;-74
2023/11/11 15:48:30;;;;;;;;;;;;;;;;;;5090196;28;19908;-74
2023/11/11 15:50:56;;;;;;;;;;;;;;;;;;5090437;28;20006;-74
2023/11/11 15:53:22;;;;;;;;;;;;;;;;;;5090387;28;19959;-74
2023/11/11 15:55:48;;;;;;;;;;;;;;;;;;5090028;28;19950;-74
2023/11/11 15:58:14;;;;;;;;;;;;;;;;;;5090255;28;19919;-74
2023/11/11 16:00:40;;;;;;;;;;;;;;;;;;5089941;28;20368;-75
2023/11/11 16:03:06;;;;;;;;;;;;;;;;;;5089750;28;19916;-75
2023/11/11 16:05:32;;;;;;;;;;;;;;;;;;5088857;28;20046;-75
2023/11/11 16:08:01;;;;;;;;;;;;;;;;;;5090013;28;19954;-75
2023/11/11 16:10:27;;;;;;;;;;;;;;;;;;5090107;28;19908;-75
2023/11/11 16:12:53;;;;;;;;;;;;;;;;;;5079397;28;19908;-74
2023/11/11 16:15:19;;;;;;;;;;;;;;;;;;5076114;28;19958;-74
2023/11/11 16:17:45;;;;;;;;;;;;;;;;;;5076566;28;19908;-75
2023/11/11 16:20:14;;;;;;;;;;;;;;;;;;5075054;28;19920;-75
2023/11/11 16:22:40;;;;;;;;;;;;;;;;;;5076040;28;19915;-75
2023/11/11 16:25:10;;;;;;;;;;;;;;;;;;5075153;28;20015;-75
2023/11/11 16:27:36;;;;;;;;;;;;;;;;;;5075082;28;19908;-75
2023/11/11 16:30:02;;;;;;;;;;;;;;;;;;5076005;28;19916;-74
2023/11/11 16:32:28;;;;;;;;;;;;;;;;;;5076170;28;19909;-75
2023/11/11 16:34:55;;;;;;;;;;;;;;;;;;5076198;28;19913;-75
2023/11/11 16:37:21;;;;;;;;;;;;;;;;;;5076056;28;20429;-75
2023/11/11 16:39:47;;;;;;;;;;;;;;;;;;5075992;28;20364;-75
2023/11/11 16:42:14;;;;;;;;;;;;;;;;;;5076146;28;20001;-75
2023/11/11 16:44:40;;;;;;;;;;;;;;;;;;5075642;28;19909;-76
2023/11/11 16:47:07;;;;;;;;;;;;;;;;;;5075859;28;20284;-75
2023/11/11 16:49:33;;;;;;;;;;;;;;;;;;5076457;28;19946;-75
2023/11/11 16:52:02;;;;;;;;;;;;;;;;;;5075512;28;20361;-75
2023/11/11 16:54:28;;;;;;;;;;;;;;;;;;5075817;28;19909;-75
2023/11/11 16:56:55;;;;;;;;;;;;;;;;;;5075587;28;20011;-75
2023/11/11 16:59:22;;;;;;;;;;;;;;;;;;5075406;28;20373;-75
2023/11/11 17:01:48;;;;;;;;;;;;;;;;;;5075477;28;20011;-75
2023/11/11 17:04:15;;;;;;;;;;;;;;;;;;5075339;28;20332;-75
2023/11/11 17:06:40;;;;;;;;;;;;;;;;;;5075661;28;19915;-75
2023/11/11 17:09:10;;;;;;;;;;;;;;;;;;5075471;28;19908;-75
2023/11/11 17:11:36;;;;;;;;;;;;;;;;;;5073985;28;19916;-74
2023/11/11 17:14:03;;;;;;;;;;;;;;;;;;5075382;28;20277;-73
2023/11/11 17:16:30;;;;;;;;;;;;;;;;;;5074059;28;20379;-75
2023/11/11 17:18:56;;;;;;;;;;;;;;;;;;5073768;28;20430;-75
2023/11/11 17:21:23;;;;;;;;;;;;;;;;;;5075194;28;19923;-75
2023/11/11 17:23:49;;;;;;;;;;;;;;;;;;5074469;28;19908;-75
2023/11/11 17:26:15;;;;;;;;;;;;;;;;;;5074828;28;19932;-75
2023/11/11 17:28:41;;;;;;;;;;;;;;;;;;5075673;28;20267;-75
2023/11/11 17:31:07;;;;;;;;;;;;;;;;;;5075008;28;20334;-74
2023/11/11 17:33:34;;;;;;;;;;;;;;;;;;5074851;28;19909;-75
2023/11/11 17:35:59;;;;;;;;;;;;;;;;;;5074882;28;19908;-75
2023/11/11 17:38:26;;;;;;;;;;;;;;;;;;5075135;28;19962;-75
2023/11/11 17:40:51;;;;;;;;;;;;;;;;;;5074337;28;19921;-75
2023/11/11 17:43:18;;;;;;;;;;;;;;;;;;5074859;28;19909;-75
2023/11/11 17:45:44;;;;;;;;;;;;;;;;;;5073513;28;19913;-75
2023/11/11 17:48:10;;;;;;;;;;;;;;;;;;5074380;28;20288;-74
2023/11/11 17:50:36;;;;;;;;;;;;;;;;;;5074676;28;20352;-75
2023/11/11 17:53:04;;;;;;;;;;;;;;;;;;5074917;28;19999;-75
2023/11/11 17:55:30;;;;;;;;;;;;;;;;;;5074216;28;19908;-75
2023/11/11 17:57:56;;;;;;;;;;;;;;;;;;5074531;28;19915;-74
2023/11/11 18:00:22;;;;;;;;;;;;;;;;;;5072579;28;19920;-74
2023/11/11 18:02:48;;;;;;;;;;;;;;;;;;5074576;28;19923;-74
2023/11/11 18:05:17;;;;;;;;;;;;;;;;;;5074458;28;19920;-74
2023/11/11 18:07:43;;;;;;;;;;;;;;;;;;5074292;28;19912;-74
2023/11/11 18:10:10;;;;;;;;;;;;;;;;;;5074292;28;20318;-75
2023/11/11 18:12:36;;;;;;;;;;;;;;;;;;5074497;28;20368;-73
2023/11/11 18:15:03;;;;;;;;;;;;;;;;;;5073989;28;19909;-74
2023/11/11 18:17:29;;;;;;;;;;;;;;;;;;5074553;28;19909;-73
2023/11/11 18:19:56;;;;;;;;;;;;;;;;;;5074129;28;19908;-74
2023/11/11 18:22:22;;;;;;;;;;;;;;;;;;5073671;28;19944;-74
2023/11/11 18:24:48;;;;;;;;;;;;;;;;;;5074133;28;19913;-74
2023/11/11 18:27:14;;;;;;;;;;;;;;;;;;5074402;28;20033;-75
2023/11/11 18:29:41;;;;;;;;;;;;;;;;;;5072371;28;19970;-76
2023/11/11 18:32:08;;;;;;;;;;;;;;;;;;5074047;28;20045;-76
2023/11/11 18:34:34;;;;;;;;;;;;;;;;;;5073738;28;20014;-75
2023/11/11 18:37:00;;;;;;;;;;;;;;;;;;5072303;28;20457;-75